createdAt,value
2019-01-10T00:01:17.427Z,7.10
2019-01-10T00:03:47.929Z,7.10
2019-01-10T00:06:18.449Z,7.10
2019-01-10T00:08:51.087Z,7.10
2019-01-10T00:11:22.736Z,7.20
2019-01-10T00:13:53.269Z,7.20
2019-01-10T00:16:25.164Z,7.20
2019-01-10T00:18:55.691Z,7.20
2019-01-10T00:21:26.593Z,7.30
2019-01-10T00:23:57.215Z,7.30
2019-01-10T00:26:27.663Z,7.30
2019-01-10T00:28:58.242Z,7.20
2019-01-10T00:31:28.695Z,7.20
2019-01-10T00:33:59.441Z,7.20
2019-01-10T00:36:39.069Z,7.20
2019-01-10T00:39:09.921Z,7.20
2019-01-10T00:41:40.434Z,7.30
2019-01-10T00:44:11.057Z,7.30
2019-01-10T00:46:41.570Z,7.30
2019-01-10T00:49:13.969Z,7.30
2019-01-10T00:51:44.589Z,7.30
2019-01-10T00:54:15.129Z,7.30
2019-01-10T00:56:46.945Z,7.30
2019-01-10T00:59:17.495Z,7.20
2019-01-10T01:01:49.548Z,7.30
2019-01-10T01:04:21.898Z,7.20
2019-01-10T01:06:54.175Z,7.20
2019-01-10T01:09:24.748Z,7.20
2019-01-10T01:11:55.409Z,7.20
2019-01-10T01:14:25.962Z,7.10
2019-01-10T01:16:56.489Z,7.10
2019-01-10T01:19:27.024Z,7.10
2019-01-10T01:21:57.582Z,7.10
2019-01-10T01:24:28.142Z,7.10
2019-01-10T01:26:59.748Z,7.10
2019-01-10T01:29:30.483Z,7.10
2019-01-10T01:32:01.166Z,7.10
2019-01-10T01:34:32.874Z,7.10
2019-01-10T01:37:03.597Z,7.10
2019-01-10T01:39:34.192Z,7.10
2019-01-10T01:42:04.784Z,7.20
2019-01-10T01:44:35.551Z,7.20
2019-01-10T01:47:06.549Z,7.20
2019-01-10T01:49:37.312Z,7.20
2019-01-10T01:52:07.953Z,7.20
2019-01-10T01:54:38.721Z,7.20
2019-01-10T01:57:10.542Z,7.20
2019-01-10T01:59:41.127Z,7.20
2019-01-10T02:02:11.832Z,7.20
2019-01-10T02:04:42.506Z,7.20
2019-01-10T02:07:13.045Z,7.20
2019-01-10T02:09:43.654Z,7.20
2019-01-10T02:12:14.156Z,7.20
2019-01-10T02:14:44.836Z,7.20
2019-01-10T02:17:15.531Z,7.20
2019-01-10T02:19:46.037Z,7.20
2019-01-10T02:22:16.520Z,7.20
2019-01-10T02:24:47.136Z,7.20
2019-01-10T02:27:17.634Z,7.20
2019-01-10T02:29:48.372Z,7.20
2019-01-10T02:32:18.919Z,7.10
2019-01-10T02:34:49.626Z,7.20
2019-01-10T02:37:20.284Z,7.10
2019-01-10T02:39:50.813Z,7.10
2019-01-10T02:42:21.362Z,7.10
2019-01-10T02:44:52.123Z,7.10
2019-01-10T02:47:22.596Z,7.20
2019-01-10T02:49:53.519Z,7.20
2019-01-10T02:52:24.213Z,7.20
2019-01-10T02:54:55.193Z,7.20
2019-01-10T02:57:26.948Z,7.20
2019-01-10T02:59:57.562Z,7.10
2019-01-10T03:02:28.269Z,7.10
2019-01-10T03:04:59.012Z,7.10
2019-01-10T03:07:32.179Z,7.20
2019-01-10T03:10:04.864Z,7.20
2019-01-10T03:12:35.634Z,7.20
2019-01-10T03:15:08.354Z,7.20
2019-01-10T03:17:38.935Z,7.20
2019-01-10T03:20:13.525Z,7.00
2019-01-10T03:22:44.246Z,7.20
2019-01-10T03:25:14.995Z,7.20
2019-01-10T03:27:45.664Z,7.20
2019-01-10T03:30:18.998Z,7.20
2019-01-10T03:32:51.123Z,7.20
2019-01-10T03:35:26.969Z,7.20
2019-01-10T03:37:58.499Z,7.20
2019-01-10T03:40:31.136Z,7.20
2019-01-10T03:43:01.712Z,7.20
2019-01-10T03:45:32.389Z,7.20
2019-01-10T03:48:03.017Z,7.20
2019-01-10T03:50:33.690Z,7.20
2019-01-10T03:53:04.204Z,7.20
2019-01-10T03:55:34.756Z,7.10
2019-01-10T03:58:06.823Z,7.10
2019-01-10T04:00:37.625Z,7.10
2019-01-10T04:03:08.320Z,7.10
2019-01-10T04:05:39.029Z,7.10
2019-01-10T04:08:09.767Z,7.10
2019-01-10T04:10:40.360Z,7.10
2019-01-10T04:13:10.905Z,7.10
2019-01-10T04:15:41.606Z,7.10
2019-01-10T04:18:15.267Z,7.10
2019-01-10T04:20:45.774Z,7.10
2019-01-10T04:23:16.429Z,7.10
2019-01-10T04:25:47.037Z,7.10
2019-01-10T04:28:17.672Z,7.10
2019-01-10T04:30:48.517Z,7.10
2019-01-10T04:33:19.149Z,7.10
2019-01-10T04:35:49.830Z,7.10
2019-01-10T04:38:20.426Z,7.10
2019-01-10T04:40:51.244Z,7.10
2019-01-10T04:43:21.962Z,6.90
2019-01-10T04:45:54.081Z,7.00
2019-01-10T04:48:24.671Z,7.00
2019-01-10T04:50:55.334Z,7.10
2019-01-10T04:53:26.795Z,7.10
2019-01-10T04:55:57.811Z,7.00
2019-01-10T04:58:28.408Z,7.10
2019-01-10T05:00:59.083Z,7.10
2019-01-10T05:03:29.716Z,7.10
2019-01-10T05:06:02.792Z,7.10
2019-01-10T05:08:33.510Z,7.10
2019-01-10T05:11:04.261Z,7.10
2019-01-10T05:13:35.891Z,7.10
2019-01-10T05:16:06.585Z,7.10
2019-01-10T05:18:37.149Z,7.10
2019-01-10T05:21:09.779Z,7.10
2019-01-10T05:23:40.377Z,7.10
2019-01-10T05:26:11.005Z,7.00
2019-01-10T05:28:42.884Z,7.00
2019-01-10T05:31:13.491Z,7.00
2019-01-10T05:33:44.055Z,7.00
2019-01-10T05:36:14.667Z,7.00
2019-01-10T05:38:48.015Z,7.00
2019-01-10T05:41:18.653Z,7.00
2019-01-10T05:43:49.249Z,7.00
2019-01-10T05:46:20.015Z,6.90
2019-01-10T05:48:50.661Z,6.90
2019-01-10T05:51:21.440Z,7.00
2019-01-10T05:53:54.244Z,7.00
2019-01-10T05:56:25.861Z,7.00
2019-01-10T05:58:56.483Z,6.90
2019-01-10T06:01:29.777Z,6.90
2019-01-10T06:04:00.495Z,6.90
2019-01-10T06:06:31.070Z,6.90
2019-01-10T06:09:03.979Z,6.90
2019-01-10T06:11:34.485Z,6.90
2019-01-10T06:14:05.261Z,6.90
2019-01-10T06:16:35.858Z,6.90
2019-01-10T06:19:06.459Z,6.90
2019-01-10T06:21:37.294Z,6.80
2019-01-10T06:24:09.352Z,6.90
2019-01-10T06:26:40.398Z,6.80
2019-01-10T06:29:10.985Z,6.80
2019-01-10T06:31:41.590Z,6.80
2019-01-10T06:34:15.087Z,6.80
2019-01-10T06:36:45.792Z,6.90
2019-01-10T06:39:19.485Z,6.80
2019-01-10T06:41:50.210Z,6.80
2019-01-10T06:44:21.606Z,6.80
2019-01-10T06:46:52.183Z,6.80
2019-01-10T06:49:22.843Z,6.80
2019-01-10T06:51:53.529Z,6.80
2019-01-10T06:54:24.085Z,6.80
2019-01-10T06:56:54.702Z,6.80
2019-01-10T06:59:25.313Z,6.80
2019-01-10T07:01:55.956Z,6.80
2019-01-10T07:04:26.541Z,6.80
2019-01-10T07:06:59.339Z,6.80
2019-01-10T07:09:32.971Z,6.80
2019-01-10T07:12:07.746Z,6.80
2019-01-10T07:14:39.696Z,6.70
2019-01-10T07:17:11.911Z,6.70
2019-01-10T07:19:46.239Z,6.80
2019-01-10T07:22:18.726Z,6.80
2019-01-10T07:24:55.106Z,6.80
2019-01-10T07:27:25.782Z,6.80
2019-01-10T07:29:59.508Z,6.80
2019-01-10T07:32:30.364Z,6.80
2019-01-10T07:35:06.863Z,6.70
2019-01-10T07:37:37.546Z,6.70
2019-01-10T07:40:16.046Z,6.70
2019-01-10T07:42:46.860Z,6.70
2019-01-10T07:45:26.378Z,6.70
2019-01-10T07:47:56.924Z,6.60
2019-01-10T07:50:35.988Z,6.60
2019-01-10T07:53:11.315Z,6.60
2019-01-10T07:55:44.647Z,6.60
2019-01-10T07:58:15.407Z,6.60
2019-01-10T08:00:46.090Z,6.60
2019-01-10T08:03:16.539Z,6.60
2019-01-10T08:05:47.129Z,6.60
2019-01-10T08:08:17.602Z,6.60
2019-01-10T08:10:48.107Z,6.60
2019-01-10T08:13:20.852Z,6.60
2019-01-10T08:15:51.309Z,6.60
2019-01-10T08:18:23.494Z,6.60
2019-01-10T08:20:53.958Z,6.60
2019-01-10T08:23:24.474Z,6.50
2019-01-10T08:25:55.085Z,6.50
2019-01-10T08:28:25.577Z,6.50
2019-01-10T08:30:57.758Z,6.50
2019-01-10T08:33:28.307Z,6.50
2019-01-10T08:35:58.985Z,6.50
2019-01-10T08:38:29.696Z,6.50
2019-01-10T08:41:00.163Z,6.50
2019-01-10T08:43:30.880Z,6.50
2019-01-10T08:46:01.520Z,6.50
2019-01-10T08:48:32.139Z,6.50
2019-01-10T08:51:02.702Z,6.50
2019-01-10T08:53:33.338Z,6.50
2019-01-10T08:56:04.036Z,6.50
2019-01-10T08:58:34.583Z,6.60
2019-01-10T09:01:05.114Z,6.60
2019-01-10T09:03:35.810Z,6.60
2019-01-10T09:06:08.242Z,6.60
2019-01-10T09:08:38.811Z,6.60
2019-01-10T09:11:09.430Z,6.60
2019-01-10T09:13:39.928Z,6.50
2019-01-10T09:16:10.490Z,6.50
2019-01-10T09:18:41.042Z,6.50
2019-01-10T09:21:11.483Z,6.50
2019-01-10T09:23:42.040Z,6.50
2019-01-10T09:26:12.494Z,6.50
2019-01-10T09:28:43.135Z,6.50
2019-01-10T09:31:13.826Z,6.50
2019-01-10T09:33:44.228Z,6.50
2019-01-10T09:36:14.798Z,6.60
2019-01-10T09:38:45.264Z,6.50
2019-01-10T09:41:15.695Z,6.50
2019-01-10T09:43:46.153Z,6.50
2019-01-10T09:46:16.593Z,6.50
2019-01-10T09:48:47.096Z,6.50
2019-01-10T09:51:17.523Z,6.50
2019-01-10T09:53:48.069Z,6.50
2019-01-10T09:56:18.494Z,6.50
2019-01-10T09:58:51.810Z,6.50
2019-01-10T10:01:23.906Z,6.50
2019-01-10T10:03:56.795Z,6.50
2019-01-10T10:06:27.375Z,6.50
2019-01-10T10:08:57.876Z,6.50
2019-01-10T10:11:33.973Z,6.50
2019-01-10T10:14:00.658Z,6.50
2019-01-10T10:16:31.265Z,6.50
2019-01-10T10:19:01.792Z,6.50
2019-01-10T10:21:32.217Z,6.50
2019-01-10T10:24:02.795Z,6.50
2019-01-10T10:26:33.276Z,6.50
2019-01-10T10:29:03.852Z,6.50
2019-01-10T10:31:34.518Z,6.50
2019-01-10T10:34:05.207Z,6.60
2019-01-10T10:36:35.852Z,6.60
2019-01-10T10:39:09.623Z,6.70
2019-01-10T10:41:42.999Z,6.70
2019-01-10T10:44:13.463Z,6.70
2019-01-10T10:46:43.999Z,6.80
2019-01-10T10:49:14.454Z,6.80
2019-01-10T10:51:44.881Z,6.80
2019-01-10T10:54:15.611Z,6.80
2019-01-10T10:56:46.155Z,6.80
2019-01-10T10:59:16.715Z,6.80
2019-01-10T11:01:49.264Z,6.90
2019-01-10T11:04:19.761Z,6.90
2019-01-10T11:06:53.509Z,6.90
2019-01-10T11:09:24.234Z,6.90
2019-01-10T11:11:54.757Z,6.90
2019-01-10T11:14:25.208Z,6.90
2019-01-10T11:16:55.902Z,6.80
2019-01-10T11:19:26.602Z,6.90
2019-01-10T11:21:57.027Z,6.90
2019-01-10T11:24:30.642Z,6.90
2019-01-10T11:27:03.647Z,6.90
2019-01-10T11:29:34.304Z,6.90
2019-01-10T11:32:12.974Z,6.90
2019-01-10T11:34:37.222Z,6.90
2019-01-10T11:37:07.743Z,6.90
2019-01-10T11:39:38.470Z,6.90
2019-01-10T11:42:08.996Z,7.00
2019-01-10T11:44:39.699Z,7.00
2019-01-10T11:47:12.163Z,7.00
2019-01-10T11:49:42.691Z,7.00
2019-01-10T11:52:13.184Z,7.00
2019-01-10T11:54:43.672Z,7.00
2019-01-10T11:57:14.179Z,7.00
2019-01-10T11:59:44.926Z,7.00
2019-01-10T12:02:15.357Z,7.00
2019-01-10T12:04:46.006Z,7.10
2019-01-10T12:07:16.648Z,7.10
2019-01-10T12:09:47.130Z,7.10
2019-01-10T12:12:17.879Z,7.10
2019-01-10T12:14:48.602Z,7.00
2019-01-10T12:17:19.343Z,7.00
2019-01-10T12:19:51.398Z,7.00
2019-01-10T12:22:22.018Z,7.00
2019-01-10T12:24:52.466Z,7.00
2019-01-10T12:27:23.132Z,7.00
2019-01-10T12:29:56.600Z,7.00
2019-01-10T12:32:27.161Z,6.90
2019-01-10T12:34:57.808Z,6.90
2019-01-10T12:37:28.289Z,6.90
2019-01-10T12:39:58.726Z,6.90
2019-01-10T12:42:29.266Z,6.90
2019-01-10T12:44:59.747Z,6.90
2019-01-10T12:47:30.370Z,6.90
2019-01-10T12:50:01.112Z,6.90
2019-01-10T12:52:35.290Z,6.90
2019-01-10T12:55:03.858Z,6.90
2019-01-10T12:57:34.331Z,6.90
2019-01-10T13:00:06.164Z,6.90
2019-01-10T13:02:36.821Z,6.90
2019-01-10T13:05:10.647Z,6.90
2019-01-10T13:07:41.247Z,7.00
2019-01-10T13:10:15.522Z,7.00
2019-01-10T13:12:46.216Z,7.00
2019-01-10T13:15:23.180Z,7.00
2019-01-10T13:17:53.946Z,7.00
2019-01-10T13:20:24.483Z,7.00
2019-01-10T13:22:58.835Z,7.00
2019-01-10T13:25:29.538Z,7.00
2019-01-10T13:28:00.218Z,6.90
2019-01-10T13:30:30.678Z,7.00
2019-01-10T13:33:01.288Z,7.00
2019-01-10T13:35:31.865Z,6.90
2019-01-10T13:38:02.389Z,6.90
2019-01-10T13:40:32.968Z,6.90
2019-01-10T13:43:03.639Z,6.90
2019-01-10T13:45:34.259Z,6.90
2019-01-10T13:48:05.284Z,6.90
2019-01-10T13:50:35.742Z,7.00
2019-01-10T13:53:06.792Z,7.00
2019-01-10T13:55:37.451Z,7.00
2019-01-10T13:58:11.127Z,7.00
2019-01-10T14:00:41.566Z,7.00
2019-01-10T14:03:12.061Z,7.00
2019-01-10T14:05:42.594Z,7.00
2019-01-10T14:08:13.101Z,7.00
2019-01-10T14:10:43.609Z,7.00
2019-01-10T14:13:14.197Z,7.00
2019-01-10T14:15:44.673Z,7.00
2019-01-10T14:18:15.342Z,7.00
2019-01-10T14:20:45.899Z,7.00
2019-01-10T14:23:16.399Z,7.00
2019-01-10T14:25:47.027Z,7.00
2019-01-10T14:28:17.481Z,6.90
2019-01-10T14:30:48.191Z,7.00
2019-01-10T14:33:18.875Z,7.00
2019-01-10T14:35:49.322Z,7.00
2019-01-10T14:38:20.739Z,7.00
2019-01-10T14:40:51.742Z,7.00
2019-01-10T14:43:22.582Z,7.00
2019-01-10T14:45:53.034Z,7.00
2019-01-10T14:48:23.516Z,7.00
2019-01-10T14:50:54.150Z,7.00
2019-01-10T14:53:26.449Z,7.00
2019-01-10T14:55:57.212Z,7.00
2019-01-10T14:58:27.998Z,7.10
2019-01-10T15:00:58.629Z,7.10
2019-01-10T15:03:29.129Z,7.10
2019-01-10T15:05:59.823Z,7.00
2019-01-10T15:08:30.557Z,7.00
2019-01-10T15:11:01.179Z,7.00
2019-01-10T15:13:31.628Z,7.00
2019-01-10T15:16:02.321Z,7.00
2019-01-10T15:18:33.167Z,7.00
2019-01-10T15:21:03.618Z,7.00
2019-01-10T15:23:34.261Z,7.00
2019-01-10T15:26:05.171Z,7.00
2019-01-10T15:28:36.128Z,7.00
2019-01-10T15:31:11.603Z,7.00
2019-01-10T15:33:42.118Z,7.00
2019-01-10T15:36:12.744Z,7.00
2019-01-10T15:38:43.389Z,7.00
2019-01-10T15:41:13.968Z,7.00
2019-01-10T15:43:44.684Z,7.10
2019-01-10T15:46:15.417Z,7.00
2019-01-10T15:48:45.999Z,7.10
2019-01-10T15:51:16.562Z,7.10
2019-01-10T15:53:47.356Z,7.10
2019-01-10T15:56:18.112Z,7.10
2019-01-10T15:58:48.657Z,7.10
2019-01-10T16:01:19.178Z,7.00
2019-01-10T16:03:49.854Z,7.00
2019-01-10T16:06:20.457Z,7.10
2019-01-10T16:08:51.031Z,7.00
2019-01-10T16:11:21.627Z,7.00
2019-01-10T16:13:52.216Z,7.00
2019-01-10T16:16:24.932Z,7.00
2019-01-10T16:18:55.759Z,7.00
2019-01-10T16:21:26.465Z,7.00
2019-01-10T16:23:57.109Z,7.00
2019-01-10T16:26:27.708Z,7.00
2019-01-10T16:28:59.383Z,7.00
2019-01-10T16:31:30.063Z,7.00
2019-01-10T16:34:00.683Z,7.00
2019-01-10T16:36:33.163Z,7.00
2019-01-10T16:39:05.327Z,7.00
2019-01-10T16:41:36.063Z,7.00
2019-01-10T16:44:09.215Z,7.00
2019-01-10T16:46:40.657Z,7.00
2019-01-10T16:49:11.174Z,7.00
2019-01-10T16:51:41.947Z,7.00
2019-01-10T16:54:12.556Z,7.00
2019-01-10T16:56:43.064Z,7.00
2019-01-10T16:59:13.820Z,7.00
2019-01-10T17:01:44.483Z,7.00
2019-01-10T17:04:15.121Z,6.90
2019-01-10T17:06:45.846Z,6.90
2019-01-10T17:09:17.918Z,6.90
2019-01-10T17:11:48.572Z,6.90
2019-01-10T17:14:19.193Z,6.80
2019-01-10T17:16:50.301Z,6.80
2019-01-10T17:19:21.131Z,6.80
2019-01-10T17:21:51.677Z,6.80
2019-01-10T17:24:23.935Z,6.70
2019-01-10T17:26:54.612Z,6.80
2019-01-10T17:29:25.103Z,6.70
2019-01-10T17:31:55.669Z,6.70
2019-01-10T17:34:26.425Z,6.70
2019-01-10T17:36:56.982Z,6.70
2019-01-10T17:39:27.573Z,6.70
2019-01-10T17:41:58.124Z,6.70
2019-01-10T17:44:28.788Z,6.80
2019-01-10T17:46:59.277Z,6.70
2019-01-10T17:49:30.074Z,6.80
2019-01-10T17:52:00.708Z,6.70
2019-01-10T17:54:34.313Z,6.70
2019-01-10T17:57:05.056Z,6.70
2019-01-10T17:59:35.840Z,6.70
2019-01-10T18:02:07.130Z,6.70
2019-01-10T18:04:37.712Z,6.70
2019-01-10T18:07:08.426Z,6.60
2019-01-10T18:09:39.118Z,6.60
2019-01-10T18:12:09.804Z,6.60
2019-01-10T18:14:40.484Z,6.60
2019-01-10T18:17:11.277Z,6.60
2019-01-10T18:19:42.042Z,6.60
2019-01-10T18:22:12.609Z,6.60
2019-01-10T18:24:43.418Z,6.60
2019-01-10T18:27:13.938Z,6.60
2019-01-10T18:29:44.633Z,6.60
2019-01-10T18:32:16.382Z,6.60
2019-01-10T18:34:47.900Z,6.60
2019-01-10T18:37:18.858Z,6.60
2019-01-10T18:39:49.875Z,6.60
2019-01-10T18:42:20.393Z,6.60
2019-01-10T18:44:51.050Z,6.60
2019-01-10T18:47:21.671Z,6.60
2019-01-10T18:49:52.532Z,6.60
2019-01-10T18:52:23.112Z,6.60
2019-01-10T18:54:59.975Z,6.60
2019-01-10T18:57:27.947Z,6.60
2019-01-10T18:59:59.911Z,6.60
2019-01-10T19:02:30.528Z,6.60
2019-01-10T19:05:01.346Z,6.60
2019-01-10T19:07:31.907Z,6.60
2019-01-10T19:10:02.509Z,6.60
2019-01-10T19:12:33.149Z,6.60
2019-01-10T19:15:03.774Z,6.60
2019-01-10T19:17:35.847Z,6.60
2019-01-10T19:20:10.134Z,6.60
2019-01-10T19:22:41.016Z,6.60
2019-01-10T19:25:11.634Z,6.60
2019-01-10T19:27:42.144Z,6.60
2019-01-10T19:30:17.102Z,6.70
2019-01-10T19:32:48.521Z,6.70
2019-01-10T19:35:19.237Z,6.70
2019-01-10T19:37:50.301Z,6.70
2019-01-10T19:40:23.146Z,6.70
2019-01-10T19:42:53.915Z,6.70
2019-01-10T19:45:25.083Z,6.70
2019-01-10T19:47:55.716Z,6.70
2019-01-10T19:50:27.429Z,6.60
2019-01-10T19:52:58.134Z,6.60
2019-01-10T19:55:29.482Z,6.60
2019-01-10T19:58:00.463Z,6.60
2019-01-10T20:00:35.134Z,6.70
2019-01-10T20:03:05.793Z,6.70
2019-01-10T20:05:36.491Z,6.70
2019-01-10T20:08:07.059Z,6.70
2019-01-10T20:10:37.874Z,6.70
2019-01-10T20:13:08.613Z,6.70
2019-01-10T20:15:39.263Z,6.70
2019-01-10T20:18:15.931Z,6.70
2019-01-10T20:20:43.567Z,6.70
2019-01-10T20:23:30.302Z,6.70
2019-01-10T20:26:01.278Z,6.70
2019-01-10T20:28:31.958Z,6.70
2019-01-10T20:31:05.195Z,6.70
2019-01-10T20:33:36.063Z,6.80
2019-01-10T20:36:06.785Z,6.70
2019-01-10T20:38:37.550Z,6.80
2019-01-10T20:41:08.181Z,6.80
2019-01-10T20:43:38.833Z,6.80
2019-01-10T20:46:11.041Z,6.80
2019-01-10T20:48:43.528Z,6.70
2019-01-10T20:51:14.334Z,6.70
2019-01-10T20:53:45.847Z,6.70
2019-01-10T20:56:18.853Z,6.70
2019-01-10T20:58:49.447Z,6.70
2019-01-10T21:01:20.925Z,6.70
2019-01-10T21:03:51.621Z,6.70
2019-01-10T21:06:22.204Z,6.70
2019-01-10T21:08:52.875Z,6.70
2019-01-10T21:11:23.617Z,6.70
2019-01-10T21:13:55.602Z,6.70
2019-01-10T21:16:26.342Z,6.70
2019-01-10T21:18:57.113Z,6.70
2019-01-10T21:21:27.917Z,6.70
2019-01-10T21:23:58.574Z,6.70
2019-01-10T21:26:29.143Z,6.70
2019-01-10T21:28:59.717Z,6.70
2019-01-10T21:31:30.547Z,6.70
2019-01-10T21:34:01.248Z,6.70
2019-01-10T21:36:31.954Z,6.70
2019-01-10T21:39:02.702Z,6.80
2019-01-10T21:41:33.396Z,6.80
2019-01-10T21:44:06.789Z,6.80
2019-01-10T21:46:37.710Z,6.80
2019-01-10T21:49:08.521Z,6.80
2019-01-10T21:51:41.165Z,6.80
2019-01-10T21:54:11.834Z,6.80
2019-01-10T21:56:42.541Z,6.80
2019-01-10T21:59:14.587Z,6.80
2019-01-10T22:01:45.280Z,6.80
2019-01-10T22:04:17.390Z,6.80
2019-01-10T22:06:48.018Z,6.80
2019-01-10T22:09:19.814Z,6.80
2019-01-10T22:11:50.381Z,6.80
2019-01-10T22:14:22.055Z,6.80
2019-01-10T22:16:52.707Z,6.80
2019-01-10T22:19:23.319Z,6.80
2019-01-10T22:21:53.956Z,6.80
2019-01-10T22:24:24.600Z,6.80
2019-01-10T22:26:55.120Z,6.80
2019-01-10T22:29:25.771Z,6.80
2019-01-10T22:31:56.383Z,6.80
2019-01-10T22:34:28.415Z,6.80
2019-01-10T22:36:59.012Z,6.80
2019-01-10T22:39:29.595Z,6.80
2019-01-10T22:42:00.453Z,6.80
2019-01-10T22:44:31.009Z,6.80
2019-01-10T22:47:01.833Z,6.80
2019-01-10T22:49:32.398Z,6.80
2019-01-10T22:52:03.251Z,6.80
2019-01-10T22:54:34.099Z,6.80
2019-01-10T22:57:04.608Z,6.80
2019-01-10T22:59:35.408Z,6.80
2019-01-10T23:02:07.032Z,6.80
2019-01-10T23:04:40.447Z,6.70
2019-01-10T23:07:21.534Z,6.70
2019-01-10T23:09:54.207Z,6.70
2019-01-10T23:12:29.270Z,6.70
2019-01-10T23:14:59.873Z,6.70
2019-01-10T23:17:51.173Z,6.70
2019-01-10T23:20:22.031Z,6.70
2019-01-10T23:23:00.663Z,6.70
2019-01-10T23:25:31.443Z,6.70
2019-01-10T23:28:02.768Z,6.70
2019-01-10T23:30:54.946Z,6.70
2019-01-10T23:33:26.435Z,6.70
2019-01-10T23:36:02.410Z,6.70
2019-01-10T23:38:33.025Z,6.70
2019-01-10T23:41:04.065Z,6.70
2019-01-10T23:43:34.647Z,6.70
2019-01-10T23:46:05.569Z,6.70
2019-01-10T23:48:36.261Z,6.70
2019-01-10T23:51:06.970Z,6.70
2019-01-10T23:53:37.857Z,6.70
2019-01-10T23:56:08.373Z,6.70
2019-01-10T23:58:38.894Z,6.70
